createdAt,value
2023-01-05T00:00:01.464Z,1002.64
2023-01-05T00:01:01.383Z,1002.65
2023-01-05T00:02:01.355Z,1002.70
2023-01-05T00:03:01.358Z,1002.70
2023-01-05T00:04:01.337Z,1002.67
2023-01-05T00:05:01.133Z,1002.67
2023-01-05T00:06:01.056Z,1002.63
2023-01-05T00:07:01.004Z,1002.64
2023-01-05T00:08:00.924Z,1002.63
2023-01-05T00:09:00.863Z,1002.62
2023-01-05T00:10:00.801Z,1002.61
2023-01-05T00:11:00.738Z,1002.53
2023-01-05T00:12:00.682Z,1002.61
2023-01-05T00:13:00.601Z,1002.58
2023-01-05T00:14:00.542Z,1002.62
2023-01-05T00:15:00.530Z,1002.64
2023-01-05T00:16:00.403Z,1002.51
2023-01-05T00:17:00.421Z,1002.61
2023-01-05T00:18:00.288Z,1002.72
2023-01-05T00:19:00.202Z,1002.66
2023-01-05T00:20:00.159Z,1002.60
2023-01-05T00:21:00.148Z,1002.58
2023-01-05T00:22:00.020Z,1002.67
2023-01-05T00:22:59.938Z,1002.64
2023-01-05T00:23:59.879Z,1002.56
2023-01-05T00:25:02.126Z,1002.58
2023-01-05T00:25:59.747Z,1002.69
2023-01-05T00:26:59.681Z,1002.76
2023-01-05T00:27:59.617Z,1002.71
2023-01-05T00:28:59.546Z,1002.55
2023-01-05T00:29:59.483Z,1002.75
2023-01-05T00:30:59.418Z,1002.78
2023-01-05T00:31:59.398Z,1002.82
2023-01-05T00:32:59.283Z,1002.69
2023-01-05T00:33:59.223Z,1002.70
2023-01-05T00:34:59.159Z,1002.60
2023-01-05T00:35:59.091Z,1002.68
2023-01-05T00:36:59.033Z,1002.70
2023-01-05T00:37:58.961Z,1002.61
2023-01-05T00:38:58.895Z,1002.66
2023-01-05T00:39:58.835Z,1002.67
2023-01-05T00:40:58.772Z,1002.68
2023-01-05T00:41:58.703Z,1002.68
2023-01-05T00:42:58.633Z,1002.72
2023-01-05T00:43:58.566Z,1002.60
2023-01-05T00:44:58.497Z,1002.65
2023-01-05T00:45:58.468Z,1002.52
2023-01-05T00:46:58.370Z,1002.61
2023-01-05T00:47:58.311Z,1002.58
2023-01-05T00:48:58.244Z,1002.55
2023-01-05T00:49:58.176Z,1002.64
2023-01-05T00:50:58.106Z,1002.61
2023-01-05T00:51:58.049Z,1002.62
2023-01-05T00:52:57.981Z,1002.64
2023-01-05T00:53:57.933Z,1002.55
2023-01-05T00:54:57.848Z,1002.57
2023-01-05T00:55:57.798Z,1002.62
2023-01-05T00:56:57.717Z,1002.65
2023-01-05T00:57:57.655Z,1002.64
2023-01-05T00:58:57.594Z,1002.65
2023-01-05T00:59:57.522Z,1002.71
2023-01-05T01:00:57.489Z,1002.69
2023-01-05T01:01:57.502Z,1002.66
2023-01-05T01:02:57.417Z,1002.66
2023-01-05T01:03:57.260Z,1002.64
2023-01-05T01:04:57.191Z,1002.64
2023-01-05T01:05:57.126Z,1002.62
2023-01-05T01:06:57.063Z,1002.60
2023-01-05T01:07:57.006Z,1002.73
2023-01-05T01:08:56.934Z,1002.65
2023-01-05T01:09:56.871Z,1002.61
2023-01-05T01:10:56.804Z,1002.62
2023-01-05T01:11:56.734Z,1002.63
2023-01-05T01:12:56.669Z,1002.63
2023-01-05T01:13:56.605Z,1002.63
2023-01-05T01:14:56.537Z,1002.64
2023-01-05T01:15:56.477Z,1002.66
2023-01-05T01:16:56.455Z,1002.69
2023-01-05T01:17:56.344Z,1002.68
2023-01-05T01:18:56.282Z,1002.70
2023-01-05T01:19:56.215Z,1002.68
2023-01-05T01:20:56.145Z,1002.67
2023-01-05T01:21:56.086Z,1002.69
2023-01-05T01:22:56.024Z,1002.66
2023-01-05T01:23:55.956Z,1002.62
2023-01-05T01:24:55.895Z,1002.65
2023-01-05T01:25:55.821Z,1002.67
2023-01-05T01:26:55.757Z,1002.73
2023-01-05T01:27:55.701Z,1002.71
2023-01-05T01:28:55.634Z,1002.66
2023-01-05T01:29:55.564Z,1002.72
2023-01-05T01:30:55.541Z,1002.69
2023-01-05T01:31:55.433Z,1002.72
2023-01-05T01:32:55.361Z,1002.69
2023-01-05T01:33:55.299Z,1002.70
2023-01-05T01:34:55.350Z,1002.66
2023-01-05T01:35:55.197Z,1002.74
2023-01-05T01:36:55.103Z,1002.67
2023-01-05T01:37:55.043Z,1002.61
2023-01-05T01:38:54.972Z,1002.66
2023-01-05T01:39:54.919Z,1002.66
2023-01-05T01:40:54.849Z,1002.71
2023-01-05T01:41:54.774Z,1002.76
2023-01-05T01:42:54.712Z,1002.70
2023-01-05T01:43:54.645Z,1002.76
2023-01-05T01:44:54.580Z,1002.62
2023-01-05T01:45:54.523Z,1002.80
2023-01-05T01:46:54.452Z,1002.70
2023-01-05T01:47:54.428Z,1002.73
2023-01-05T01:48:54.318Z,1002.75
2023-01-05T01:49:54.255Z,1002.77
2023-01-05T01:50:54.194Z,1002.75
2023-01-05T01:51:54.120Z,1002.83
2023-01-05T01:52:54.071Z,1002.79
2023-01-05T01:53:53.990Z,1002.70
2023-01-05T01:54:53.925Z,1002.70
2023-01-05T01:55:53.864Z,1002.76
2023-01-05T01:56:53.795Z,1002.79
2023-01-05T01:57:53.728Z,1002.62
2023-01-05T01:58:53.660Z,1002.72
2023-01-05T01:59:53.606Z,1002.77
2023-01-05T02:00:53.572Z,1002.79
2023-01-05T02:01:53.518Z,1002.61
2023-01-05T02:02:53.434Z,1002.66
2023-01-05T02:03:53.344Z,1002.60
2023-01-05T02:04:53.283Z,1002.44
2023-01-05T02:05:53.202Z,1002.58
2023-01-05T02:06:53.149Z,1002.59
2023-01-05T02:07:53.079Z,1002.58
2023-01-05T02:08:53.012Z,1002.67
2023-01-05T02:09:52.942Z,1002.56
2023-01-05T02:10:52.874Z,1002.52
2023-01-05T02:11:52.813Z,1002.51
2023-01-05T02:12:52.747Z,1002.62
2023-01-05T02:13:52.682Z,1002.65
2023-01-05T02:14:52.618Z,1002.62
2023-01-05T02:15:52.550Z,1002.65
2023-01-05T02:16:52.539Z,1002.61
2023-01-05T02:17:52.444Z,1002.67
2023-01-05T02:18:52.357Z,1002.68
2023-01-05T02:19:52.288Z,1002.54
2023-01-05T02:20:52.221Z,1002.54
2023-01-05T02:21:52.155Z,1002.47
2023-01-05T02:22:52.101Z,1002.56
2023-01-05T02:23:52.034Z,1002.54
2023-01-05T02:24:51.958Z,1002.55
2023-01-05T02:25:51.901Z,1002.45
2023-01-05T02:26:51.842Z,1002.57
2023-01-05T02:27:51.763Z,1002.51
2023-01-05T02:28:51.700Z,1002.53
2023-01-05T02:29:51.635Z,1002.42
2023-01-05T02:30:51.630Z,1002.51
2023-01-05T02:31:51.511Z,1002.49
2023-01-05T02:32:51.442Z,1002.50
2023-01-05T02:33:51.371Z,1002.53
2023-01-05T02:34:51.307Z,1002.59
2023-01-05T02:35:51.249Z,1002.60
2023-01-05T02:36:51.175Z,1002.65
2023-01-05T02:37:51.117Z,1002.60
2023-01-05T02:38:51.047Z,1002.50
2023-01-05T02:39:50.985Z,1002.52
2023-01-05T02:40:50.918Z,1002.45
2023-01-05T02:41:50.849Z,1002.48
2023-01-05T02:42:50.788Z,1002.53
2023-01-05T02:43:50.718Z,1002.43
2023-01-05T02:44:50.662Z,1002.48
2023-01-05T02:45:50.630Z,1002.45
2023-01-05T02:46:50.525Z,1002.44
2023-01-05T02:47:50.474Z,1002.43
2023-01-05T02:48:50.393Z,1002.45
2023-01-05T02:49:50.334Z,1002.47
2023-01-05T02:50:50.266Z,1002.45
2023-01-05T02:51:50.199Z,1002.48
2023-01-05T02:52:50.137Z,1002.43
2023-01-05T02:53:50.074Z,1002.44
2023-01-05T02:54:50.005Z,1002.43
2023-01-05T02:55:49.942Z,1002.40
2023-01-05T02:56:49.874Z,1002.39
2023-01-05T02:57:49.808Z,1002.40
2023-01-05T02:58:49.758Z,1002.41
2023-01-05T02:59:49.674Z,1002.45
2023-01-05T03:00:49.656Z,1002.41
2023-01-05T03:01:49.644Z,1002.31
2023-01-05T03:02:49.802Z,1002.45
2023-01-05T03:03:49.420Z,1002.50
2023-01-05T03:04:49.347Z,1002.47
2023-01-05T03:05:49.285Z,1002.58
2023-01-05T03:06:49.225Z,1002.48
2023-01-05T03:07:49.151Z,1002.60
2023-01-05T03:08:49.091Z,1002.52
2023-01-05T03:09:49.030Z,1002.57
2023-01-05T03:10:48.960Z,1002.53
2023-01-05T03:11:48.894Z,1002.56
2023-01-05T03:12:48.830Z,1002.52
2023-01-05T03:13:48.759Z,1002.40
2023-01-05T03:14:48.696Z,1002.44
2023-01-05T03:15:48.674Z,1002.54
2023-01-05T03:16:48.567Z,1002.55
2023-01-05T03:17:48.504Z,1002.49
2023-01-05T03:18:48.437Z,1002.55
2023-01-05T03:19:48.378Z,1002.52
2023-01-05T03:20:48.302Z,1002.51
2023-01-05T03:21:48.236Z,1002.49
2023-01-05T03:22:48.207Z,1002.50
2023-01-05T03:23:48.106Z,1002.53
2023-01-05T03:24:48.046Z,1002.47
2023-01-05T03:25:47.977Z,1002.48
2023-01-05T03:26:47.914Z,1002.48
2023-01-05T03:27:47.855Z,1002.58
2023-01-05T03:28:47.777Z,1002.48
2023-01-05T03:29:47.713Z,1002.59
2023-01-05T03:30:47.711Z,1002.59
2023-01-05T03:31:47.580Z,1002.50
2023-01-05T03:32:47.519Z,1002.39
2023-01-05T03:33:47.451Z,1002.64
2023-01-05T03:34:47.382Z,1002.56
2023-01-05T03:35:47.317Z,1002.59
2023-01-05T03:36:47.254Z,1002.60
2023-01-05T03:37:47.187Z,1002.63
2023-01-05T03:38:47.122Z,1002.65
2023-01-05T03:39:47.067Z,1002.66
2023-01-05T03:40:47.003Z,1002.60
2023-01-05T03:41:46.932Z,1002.71
2023-01-05T03:42:46.884Z,1002.80
2023-01-05T03:43:46.802Z,1002.65
2023-01-05T03:44:46.728Z,1002.69
2023-01-05T03:45:46.675Z,1002.66
2023-01-05T03:46:46.652Z,1002.73
2023-01-05T03:47:46.540Z,1002.73
2023-01-05T03:48:46.469Z,1002.73
2023-01-05T03:49:46.402Z,1002.73
2023-01-05T03:50:46.335Z,1002.76
2023-01-05T03:51:46.264Z,1002.83
2023-01-05T03:52:46.202Z,1002.84
2023-01-05T03:53:46.139Z,1002.85
2023-01-05T03:54:46.080Z,1002.86
2023-01-05T03:55:46.004Z,1002.79
2023-01-05T03:56:45.960Z,1002.87
2023-01-05T03:57:45.869Z,1002.91
2023-01-05T03:58:45.819Z,1002.90
2023-01-05T03:59:45.740Z,1002.75
2023-01-05T04:00:45.691Z,1002.91
2023-01-05T04:01:45.667Z,1002.90
2023-01-05T04:02:45.760Z,1002.87
2023-01-05T04:03:45.524Z,1002.91
2023-01-05T04:04:45.409Z,1002.89
2023-01-05T04:05:45.351Z,1002.96
2023-01-05T04:06:45.289Z,1003.02
2023-01-05T04:07:45.218Z,1002.93
2023-01-05T04:08:45.148Z,1002.96
2023-01-05T04:09:45.083Z,1003.04
2023-01-05T04:10:45.020Z,1002.96
2023-01-05T04:11:44.955Z,1002.89
2023-01-05T04:12:44.886Z,1003.04
2023-01-05T04:13:44.823Z,1002.97
2023-01-05T04:14:44.748Z,1003.01
2023-01-05T04:15:44.727Z,1003.03
2023-01-05T04:16:44.626Z,1002.97
2023-01-05T04:17:44.552Z,1003.03
2023-01-05T04:18:44.492Z,1003.03
2023-01-05T04:19:44.470Z,1003.00
2023-01-05T04:20:44.351Z,1003.02
2023-01-05T04:21:44.281Z,1003.01
2023-01-05T04:22:44.220Z,1003.02
2023-01-05T04:23:44.149Z,1003.09
2023-01-05T04:24:44.082Z,1003.11
2023-01-05T04:25:44.020Z,1003.15
2023-01-05T04:26:43.952Z,1003.13
2023-01-05T04:27:43.887Z,1003.08
2023-01-05T04:28:43.817Z,1003.16
2023-01-05T04:29:43.757Z,1003.21
2023-01-05T04:30:43.695Z,1003.25
2023-01-05T04:31:43.652Z,1003.15
2023-01-05T04:32:43.556Z,1003.10
2023-01-05T04:33:43.501Z,1003.17
2023-01-05T04:34:43.475Z,1003.29
2023-01-05T04:35:43.353Z,1003.17
2023-01-05T04:36:43.289Z,1003.26
2023-01-05T04:37:43.241Z,1003.21
2023-01-05T04:38:43.182Z,1003.24
2023-01-05T04:39:43.091Z,1003.29
2023-01-05T04:40:43.039Z,1003.19
2023-01-05T04:41:42.965Z,1003.22
2023-01-05T04:42:42.892Z,1003.08
2023-01-05T04:43:42.826Z,1003.13
2023-01-05T04:44:42.761Z,1003.20
2023-01-05T04:45:42.709Z,1003.15
2023-01-05T04:46:42.719Z,1003.16
2023-01-05T04:47:42.590Z,1003.20
2023-01-05T04:48:42.497Z,1003.20
2023-01-05T04:49:42.424Z,1003.19
2023-01-05T04:50:42.372Z,1003.24
2023-01-05T04:51:42.299Z,1003.20
2023-01-05T04:52:42.227Z,1003.25
2023-01-05T04:53:42.157Z,1003.29
2023-01-05T04:54:42.093Z,1003.29
2023-01-05T04:55:42.027Z,1003.34
2023-01-05T04:56:41.979Z,1003.34
2023-01-05T04:57:41.901Z,1003.36
2023-01-05T04:58:41.844Z,1003.37
2023-01-05T04:59:41.764Z,1003.44
2023-01-05T05:00:41.718Z,1003.52
2023-01-05T05:01:41.707Z,1003.39
2023-01-05T05:02:41.700Z,1003.51
2023-01-05T05:03:41.677Z,1003.41
2023-01-05T05:04:41.434Z,1003.49
2023-01-05T05:05:41.364Z,1003.52
2023-01-05T05:06:41.319Z,1003.54
2023-01-05T05:07:41.244Z,1003.54
2023-01-05T05:08:41.182Z,1003.63
2023-01-05T05:09:41.102Z,1003.61
2023-01-05T05:10:41.038Z,1003.54
2023-01-05T05:11:40.971Z,1003.57
2023-01-05T05:12:40.901Z,1003.43
2023-01-05T05:13:40.837Z,1003.46
2023-01-05T05:14:40.768Z,1003.48
2023-01-05T05:15:40.758Z,1003.35
2023-01-05T05:16:40.637Z,1003.44
2023-01-05T05:17:40.569Z,1003.43
2023-01-05T05:18:40.505Z,1003.47
2023-01-05T05:19:40.441Z,1003.49
2023-01-05T05:20:40.373Z,1003.50
2023-01-05T05:21:40.308Z,1003.51
2023-01-05T05:22:40.245Z,1003.55
2023-01-05T05:23:40.176Z,1003.41
2023-01-05T05:24:40.110Z,1003.46
2023-01-05T05:25:40.037Z,1003.51
2023-01-05T05:26:39.980Z,1003.49
2023-01-05T05:27:39.909Z,1003.47
2023-01-05T05:28:39.843Z,1003.51
2023-01-05T05:29:39.776Z,1003.48
2023-01-05T05:30:39.707Z,1003.51
2023-01-05T05:31:39.733Z,1003.51
2023-01-05T05:32:44.122Z,1003.45
2023-01-05T05:33:39.509Z,1003.48
2023-01-05T05:34:39.443Z,1003.55
2023-01-05T05:35:39.374Z,1003.48
2023-01-05T05:36:39.306Z,1003.56
2023-01-05T05:37:39.261Z,1003.63
2023-01-05T05:38:39.175Z,1003.57
2023-01-05T05:39:39.141Z,1003.56
2023-01-05T05:40:39.040Z,1003.59
2023-01-05T05:41:38.981Z,1003.59
2023-01-05T05:42:38.919Z,1003.58
2023-01-05T05:43:38.854Z,1003.55
2023-01-05T05:44:38.802Z,1003.55
2023-01-05T05:45:38.711Z,1003.56
2023-01-05T05:46:38.672Z,1003.54
2023-01-05T05:47:38.575Z,1003.52
2023-01-05T05:48:38.512Z,1003.40
2023-01-05T05:49:38.451Z,1003.44
2023-01-05T05:50:38.376Z,1003.52
2023-01-05T05:51:38.328Z,1003.54
2023-01-05T05:52:38.279Z,1003.58
2023-01-05T05:53:38.187Z,1003.96
2023-01-05T05:54:38.113Z,1003.92
2023-01-05T05:55:38.050Z,1004.03
2023-01-05T05:56:37.978Z,1003.83
2023-01-05T05:57:37.915Z,1003.97
2023-01-05T05:58:37.847Z,1003.94
2023-01-05T05:59:37.782Z,1003.77
2023-01-05T06:00:37.731Z,1003.80
2023-01-05T06:01:37.753Z,1003.80
2023-01-05T06:02:37.681Z,1003.75
2023-01-05T06:03:37.542Z,1003.65
2023-01-05T06:04:37.447Z,1003.70
2023-01-05T06:05:37.386Z,1003.56
2023-01-05T06:06:37.315Z,1003.72
2023-01-05T06:07:37.266Z,1003.75
2023-01-05T06:08:37.180Z,1003.83
2023-01-05T06:09:37.121Z,1003.63
2023-01-05T06:10:37.055Z,1003.75
2023-01-05T06:11:36.989Z,1003.68
2023-01-05T06:12:36.917Z,1003.66
2023-01-05T06:13:36.851Z,1003.72
2023-01-05T06:14:36.784Z,1003.81
2023-01-05T06:15:36.719Z,1003.83
2023-01-05T06:16:36.717Z,1003.79
2023-01-05T06:17:36.586Z,1003.86
2023-01-05T06:18:36.517Z,1003.85
2023-01-05T06:19:36.459Z,1003.93
2023-01-05T06:20:36.380Z,1003.92
2023-01-05T06:21:36.319Z,1003.86
2023-01-05T06:22:36.280Z,1003.97
2023-01-05T06:23:36.185Z,1003.92
2023-01-05T06:24:36.114Z,1003.93
2023-01-05T06:25:36.051Z,1004.02
2023-01-05T06:26:35.979Z,1003.90
2023-01-05T06:27:35.923Z,1003.96
2023-01-05T06:28:35.861Z,1004.05
2023-01-05T06:29:35.781Z,1004.00
2023-01-05T06:30:35.722Z,1004.05
2023-01-05T06:31:35.699Z,1003.99
2023-01-05T06:32:35.606Z,1004.06
2023-01-05T06:33:35.525Z,1004.04
2023-01-05T06:34:35.498Z,1004.01
2023-01-05T06:35:35.385Z,1003.97
2023-01-05T06:36:35.313Z,1004.04
2023-01-05T06:37:35.281Z,1004.05
2023-01-05T06:38:35.184Z,1004.07
2023-01-05T06:39:35.115Z,1004.12
2023-01-05T06:40:35.049Z,1004.04
2023-01-05T06:41:34.986Z,1004.15
2023-01-05T06:42:34.916Z,1004.18
2023-01-05T06:43:34.853Z,1004.23
2023-01-05T06:44:34.792Z,1004.20
2023-01-05T06:45:34.766Z,1004.28
2023-01-05T06:46:34.651Z,1004.27
2023-01-05T06:47:34.582Z,1004.30
2023-01-05T06:48:34.515Z,1004.29
2023-01-05T06:49:34.450Z,1004.27
2023-01-05T06:50:34.379Z,1004.16
2023-01-05T06:51:34.319Z,1004.22
2023-01-05T06:52:34.258Z,1004.23
2023-01-05T06:53:34.182Z,1004.25
2023-01-05T06:54:34.138Z,1004.27
2023-01-05T06:55:34.051Z,1004.30
2023-01-05T06:56:33.980Z,1004.27
2023-01-05T06:57:33.924Z,1004.29
2023-01-05T06:58:33.852Z,1004.30
2023-01-05T06:59:33.791Z,1004.30
2023-01-05T07:00:33.770Z,1004.31
2023-01-05T07:01:33.830Z,1004.33
2023-01-05T07:02:33.616Z,1004.35
2023-01-05T07:03:33.561Z,1004.40
2023-01-05T07:04:33.455Z,1004.42
2023-01-05T07:05:33.383Z,1004.34
2023-01-05T07:06:33.323Z,1004.37
2023-01-05T07:07:33.250Z,1004.29
2023-01-05T07:08:33.181Z,1004.36
2023-01-05T07:09:33.120Z,1004.29
2023-01-05T07:10:33.055Z,1004.50
2023-01-05T07:11:32.986Z,1004.35
2023-01-05T07:12:32.921Z,1004.21
2023-01-05T07:13:32.872Z,1004.28
2023-01-05T07:14:32.786Z,1004.35
2023-01-05T07:15:32.734Z,1004.42
2023-01-05T07:16:32.721Z,1004.33
2023-01-05T07:17:32.588Z,1004.57
2023-01-05T07:18:32.526Z,1004.50
2023-01-05T07:19:32.479Z,1004.43
2023-01-05T07:20:32.393Z,1004.53
2023-01-05T07:21:32.401Z,1004.47
2023-01-05T07:22:32.252Z,1004.39
2023-01-05T07:23:32.184Z,1004.44
2023-01-05T07:24:32.149Z,1004.48
2023-01-05T07:25:32.056Z,1004.38
2023-01-05T07:26:31.992Z,1004.44
2023-01-05T07:27:31.935Z,1004.59
2023-01-05T07:28:31.856Z,1004.55
2023-01-05T07:29:31.784Z,1004.57
2023-01-05T07:30:31.744Z,1004.65
2023-01-05T07:31:31.709Z,1004.67
2023-01-05T07:32:31.608Z,1004.65
2023-01-05T07:33:36.080Z,1004.72
2023-01-05T07:34:31.488Z,1004.72
2023-01-05T07:35:31.390Z,1004.70
2023-01-05T07:36:31.316Z,1004.77
2023-01-05T07:37:31.257Z,1004.74
2023-01-05T07:38:31.185Z,1004.75
2023-01-05T07:39:31.133Z,1004.75
2023-01-05T07:40:31.057Z,1004.76
2023-01-05T07:41:30.988Z,1004.73
2023-01-05T07:42:30.922Z,1004.86
2023-01-05T07:43:30.852Z,1004.83
2023-01-05T07:44:30.794Z,1004.88
2023-01-05T07:45:30.850Z,1004.95
2023-01-05T07:46:30.656Z,1005.02
2023-01-05T07:47:30.588Z,1004.92
2023-01-05T07:48:30.527Z,1004.94
2023-01-05T07:49:30.451Z,1004.99
2023-01-05T07:50:30.399Z,1005.01
2023-01-05T07:51:30.338Z,1005.01
2023-01-05T07:52:30.258Z,1005.03
2023-01-05T07:53:30.187Z,1005.06
2023-01-05T07:54:30.120Z,1005.07
2023-01-05T07:55:30.057Z,1005.08
2023-01-05T07:56:29.988Z,1005.05
2023-01-05T07:57:29.924Z,1005.06
2023-01-05T07:58:29.960Z,1005.18
2023-01-05T07:59:29.795Z,1005.20
2023-01-05T08:00:29.734Z,1005.19
2023-01-05T08:01:29.720Z,1005.22
2023-01-05T08:02:35.468Z,1005.18
2023-01-05T08:03:29.528Z,1005.25
2023-01-05T08:04:29.592Z,1005.18
2023-01-05T08:05:29.390Z,1005.21
2023-01-05T08:06:29.321Z,1005.22
2023-01-05T08:07:29.259Z,1005.27
2023-01-05T08:08:29.188Z,1005.37
2023-01-05T08:09:29.133Z,1005.37
2023-01-05T08:10:29.060Z,1005.36
2023-01-05T08:11:28.992Z,1005.42
2023-01-05T08:12:28.928Z,1005.44
2023-01-05T08:13:28.859Z,1005.44
2023-01-05T08:14:28.795Z,1005.44
2023-01-05T08:15:28.727Z,1005.46
2023-01-05T08:16:28.682Z,1005.50
2023-01-05T08:17:28.594Z,1005.44
2023-01-05T08:18:28.531Z,1005.56
2023-01-05T08:19:28.463Z,1005.56
2023-01-05T08:20:28.405Z,1005.49
2023-01-05T08:21:28.328Z,1005.62
2023-01-05T08:22:28.264Z,1005.44
2023-01-05T08:23:28.197Z,1005.38
2023-01-05T08:24:28.175Z,1005.55
2023-01-05T08:25:28.071Z,1005.59
2023-01-05T08:26:28.039Z,1005.52
2023-01-05T08:27:27.932Z,1005.61
2023-01-05T08:28:35.079Z,1005.60
2023-01-05T08:29:27.798Z,1005.61
2023-01-05T08:30:27.736Z,1005.60
2023-01-05T08:31:27.707Z,1005.64
2023-01-05T08:32:27.600Z,1005.74
2023-01-05T08:33:27.533Z,1005.66
2023-01-05T08:34:32.891Z,1005.68
2023-01-05T08:35:27.403Z,1005.70
2023-01-05T08:36:27.347Z,1005.63
2023-01-05T08:37:27.268Z,1005.76
2023-01-05T08:38:27.213Z,1005.85
2023-01-05T08:39:27.137Z,1005.61
2023-01-05T08:40:27.074Z,1005.65
2023-01-05T08:41:27.016Z,1005.76
2023-01-05T08:42:26.937Z,1005.83
2023-01-05T08:43:26.877Z,1005.69
2023-01-05T08:44:26.809Z,1005.73
2023-01-05T08:45:26.745Z,1005.71
2023-01-05T08:46:26.776Z,1005.88
2023-01-05T08:47:28.477Z,1005.73
2023-01-05T08:48:26.544Z,1005.69
2023-01-05T08:49:26.491Z,1005.74
2023-01-05T08:50:26.421Z,1005.90
2023-01-05T08:51:26.350Z,1005.92
2023-01-05T08:52:26.284Z,1005.91
2023-01-05T08:53:26.220Z,1006.01
2023-01-05T08:54:26.159Z,1005.99
2023-01-05T08:55:26.087Z,1005.91
2023-01-05T08:56:26.019Z,1005.92
2023-01-05T08:57:25.957Z,1006.05
2023-01-05T08:58:25.892Z,1005.78
2023-01-05T08:59:25.828Z,1005.99
2023-01-05T09:00:25.759Z,1005.91
2023-01-05T09:01:25.795Z,1005.91
2023-01-05T09:02:26.375Z,1006.07
2023-01-05T09:03:25.636Z,1006.09
2023-01-05T09:04:25.516Z,1006.16
2023-01-05T09:05:25.445Z,1006.05
2023-01-05T09:06:25.372Z,1006.00
2023-01-05T09:07:25.329Z,1005.93
2023-01-05T09:08:25.244Z,1005.89
2023-01-05T09:09:25.186Z,1005.98
2023-01-05T09:10:25.118Z,1006.15
2023-01-05T09:11:25.061Z,1006.04
2023-01-05T09:12:29.154Z,1006.16
2023-01-05T09:13:24.932Z,1006.23
2023-01-05T09:14:24.865Z,1006.30
2023-01-05T09:15:24.803Z,1006.20
2023-01-05T09:17:24.873Z,1006.37
2023-01-05T09:18:24.616Z,1006.41
2023-01-05T09:19:24.554Z,1006.34
2023-01-05T09:20:24.494Z,1006.48
2023-01-05T09:21:24.426Z,1006.35
2023-01-05T09:22:24.361Z,1006.41
2023-01-05T09:23:24.302Z,1006.40
2023-01-05T09:24:24.237Z,1006.46
2023-01-05T09:25:24.182Z,1006.41
2023-01-05T09:26:24.113Z,1006.47
2023-01-05T09:27:24.054Z,1006.34
2023-01-05T09:28:23.999Z,1006.39
2023-01-05T09:29:23.935Z,1006.43
2023-01-05T09:30:23.869Z,1006.36
2023-01-05T09:31:23.826Z,1006.41
2023-01-05T09:32:23.742Z,1006.64
2023-01-05T09:33:23.683Z,1006.62
2023-01-05T09:34:23.720Z,1006.53
2023-01-05T09:35:23.556Z,1006.51
2023-01-05T09:36:23.491Z,1006.57
2023-01-05T09:37:23.430Z,1006.65
2023-01-05T09:38:23.385Z,1006.67
2023-01-05T09:39:23.343Z,1006.67
2023-01-05T09:40:23.251Z,1006.62
2023-01-05T09:41:23.188Z,1006.82
2023-01-05T09:42:23.128Z,1006.61
2023-01-05T09:43:23.061Z,1006.72
2023-01-05T09:44:23.004Z,1006.78
2023-01-05T09:45:22.941Z,1006.90
2023-01-05T09:46:22.936Z,1006.80
2023-01-05T09:47:22.826Z,1006.71
2023-01-05T09:48:22.757Z,1006.81
2023-01-05T09:49:22.709Z,1006.77
2023-01-05T09:50:22.725Z,1006.84
2023-01-05T09:51:22.594Z,1006.67
2023-01-05T09:52:22.513Z,1006.87
2023-01-05T09:53:22.450Z,1006.78
2023-01-05T09:54:22.385Z,1006.99
2023-01-05T09:55:22.328Z,1006.84
2023-01-05T09:56:42.396Z,1006.80
2023-01-05T09:57:22.202Z,1006.80
2023-01-05T09:58:27.956Z,1006.81
2023-01-05T09:59:22.079Z,1006.77
2023-01-05T10:00:22.011Z,1006.78
2023-01-05T10:01:21.986Z,1006.85
2023-01-05T10:02:21.889Z,1007.00
2023-01-05T10:03:53.712Z,1006.88
2023-01-05T10:04:26.665Z,1006.81
2023-01-05T10:05:21.807Z,1006.82
2023-01-05T10:06:21.773Z,1006.75
2023-01-05T10:07:21.586Z,1006.84
2023-01-05T10:08:21.531Z,1006.68
2023-01-05T10:09:21.440Z,1006.73
2023-01-05T10:10:26.424Z,1006.70
2023-01-05T10:11:21.324Z,1006.83
2023-01-05T10:12:21.264Z,1006.78
2023-01-05T10:13:21.194Z,1006.90
2023-01-05T10:14:21.122Z,1006.82
2023-01-05T10:15:21.057Z,1006.67
2023-01-05T10:16:26.035Z,1006.68
2023-01-05T10:17:45.186Z,1006.75
2023-01-05T10:18:20.915Z,1006.69
2023-01-05T10:19:20.798Z,1006.81
2023-01-05T10:20:20.738Z,1006.65
2023-01-05T10:21:20.678Z,1006.52
2023-01-05T10:22:20.708Z,1006.77
2023-01-05T10:23:20.540Z,1006.84
2023-01-05T10:24:20.484Z,1006.85
2023-01-05T10:25:20.426Z,1006.63
2023-01-05T10:26:20.353Z,1006.86
2023-01-05T10:27:25.077Z,1006.73
2023-01-05T10:28:20.224Z,1006.83
2023-01-05T10:29:20.164Z,1006.99
2023-01-05T10:30:20.106Z,1006.67
2023-01-05T10:31:20.089Z,1006.85
2023-01-05T10:32:19.968Z,1006.69
2023-01-05T10:33:27.878Z,1007.00
2023-01-05T10:34:19.834Z,1006.87
2023-01-05T10:35:42.101Z,1006.94
2023-01-05T10:36:48.880Z,1006.71
2023-01-05T10:37:19.635Z,1006.90
2023-01-05T10:38:19.668Z,1006.91
2023-01-05T10:39:19.508Z,1006.95
2023-01-05T10:40:19.445Z,1007.03
2023-01-05T10:41:19.378Z,1007.08
2023-01-05T10:42:19.313Z,1006.98
2023-01-05T10:43:19.260Z,1006.92
2023-01-05T10:44:19.189Z,1007.06
2023-01-05T10:45:19.123Z,1007.04
2023-01-05T10:46:32.483Z,1007.00
2023-01-05T10:47:19.039Z,1006.83
2023-01-05T10:48:18.922Z,1006.97
2023-01-05T10:49:18.860Z,1007.11
2023-01-05T10:50:18.812Z,1006.81
2023-01-05T10:51:18.731Z,1007.03
2023-01-05T10:52:18.677Z,1006.72
2023-01-05T10:53:18.610Z,1007.08
2023-01-05T10:54:18.638Z,1007.03
2023-01-05T10:55:18.470Z,1006.93
2023-01-05T10:56:18.409Z,1007.11
2023-01-05T10:57:18.342Z,1007.15
2023-01-05T10:58:18.281Z,1007.16
2023-01-05T10:59:18.282Z,1007.15
2023-01-05T11:00:18.298Z,1007.17
2023-01-05T11:01:18.264Z,1007.11
2023-01-05T11:02:18.108Z,1007.15
2023-01-05T11:03:17.958Z,1007.19
2023-01-05T11:04:35.423Z,1007.22
2023-01-05T11:05:17.902Z,1007.21
2023-01-05T11:06:17.762Z,1007.32
2023-01-05T11:07:17.697Z,1007.30
2023-01-05T11:08:17.650Z,1007.40
2023-01-05T11:09:22.039Z,1007.14
2023-01-05T11:10:17.603Z,1007.33
2023-01-05T11:11:17.438Z,1007.34
2023-01-05T11:12:17.374Z,1007.30
2023-01-05T11:13:17.316Z,1007.32
2023-01-05T11:14:17.255Z,1007.31
2023-01-05T11:15:17.183Z,1007.32
2023-01-05T11:16:17.164Z,1007.42
2023-01-05T11:17:17.053Z,1007.47
2023-01-05T11:18:17.002Z,1007.61
2023-01-05T11:19:16.921Z,1007.50
2023-01-05T11:20:16.860Z,1007.45
2023-01-05T11:21:16.798Z,1007.54
2023-01-05T11:22:16.727Z,1007.60
2023-01-05T11:23:16.658Z,1007.55
2023-01-05T11:24:16.599Z,1007.48
2023-01-05T11:25:16.546Z,1007.53
2023-01-05T11:26:16.565Z,1007.43
2023-01-05T11:27:16.400Z,1007.53
2023-01-05T11:28:16.337Z,1007.48
2023-01-05T11:29:16.271Z,1007.50
2023-01-05T11:30:16.218Z,1007.50
2023-01-05T11:31:16.166Z,1007.53
2023-01-05T11:32:16.076Z,1007.52
2023-01-05T11:33:21.425Z,1007.57
2023-01-05T11:34:15.951Z,1007.62
2023-01-05T11:35:15.882Z,1007.59
2023-01-05T11:36:15.827Z,1007.57
2023-01-05T11:37:15.757Z,1007.70
2023-01-05T11:38:15.692Z,1007.56
2023-01-05T11:39:15.625Z,1007.47
2023-01-05T11:40:15.558Z,1007.66
2023-01-05T11:41:15.491Z,1007.69
2023-01-05T11:42:20.270Z,1007.73
2023-01-05T11:43:15.363Z,1007.66
2023-01-05T11:44:15.295Z,1007.65
2023-01-05T11:45:15.236Z,1007.71
2023-01-05T11:46:15.247Z,1007.89
2023-01-05T11:47:15.104Z,1007.88
2023-01-05T11:48:15.038Z,1007.87
2023-01-05T11:49:14.975Z,1007.68
2023-01-05T11:50:14.953Z,1007.67
2023-01-05T11:51:14.841Z,1007.98
2023-01-05T11:52:14.784Z,1007.86
2023-01-05T11:53:14.751Z,1008.05
2023-01-05T11:54:14.653Z,1007.86
2023-01-05T11:55:14.589Z,1008.02
2023-01-05T11:56:14.517Z,1008.09
2023-01-05T11:57:14.451Z,1008.03
2023-01-05T11:58:14.544Z,1008.06
2023-01-05T11:59:14.327Z,1008.05
2023-01-05T12:00:14.374Z,1008.07
2023-01-05T12:01:14.271Z,1008.10
2023-01-05T12:02:14.153Z,1007.97
2023-01-05T12:03:14.128Z,1008.14
2023-01-05T12:04:14.016Z,1008.15
2023-01-05T12:05:14.058Z,1008.11